createdAt,value
2023-04-11T00:00:04.780Z,0.00
2023-04-11T00:01:04.524Z,0.00
2023-04-11T00:02:04.693Z,0.00
2023-04-11T00:03:04.713Z,0.00
2023-04-11T00:04:04.827Z,0.00
2023-04-11T00:05:04.643Z,0.00
2023-04-11T00:06:04.303Z,0.00
2023-04-11T00:07:04.439Z,0.00
2023-04-11T00:08:04.221Z,0.00
2023-04-11T00:09:04.167Z,0.00
2023-04-11T00:10:04.142Z,0.00
2023-04-11T00:11:04.253Z,0.00
2023-04-11T00:12:04.068Z,0.00
2023-04-11T00:13:04.269Z,0.00
2023-04-11T00:14:03.950Z,0.00
2023-04-11T00:15:03.911Z,0.00
2023-04-11T00:16:04.317Z,0.00
2023-04-11T00:17:03.817Z,0.00
2023-04-11T00:18:03.936Z,0.00
2023-04-11T00:19:03.735Z,0.00
2023-04-11T00:20:03.693Z,0.00
2023-04-11T00:21:03.689Z,0.00
2023-04-11T00:22:03.715Z,0.00
2023-04-11T00:23:03.556Z,0.00
2023-04-11T00:24:03.737Z,0.00
2023-04-11T00:25:03.503Z,0.00
2023-04-11T00:26:03.563Z,0.00
2023-04-11T00:27:03.380Z,0.00
2023-04-11T00:28:03.759Z,0.00
2023-04-11T00:29:03.291Z,0.00
2023-04-11T00:30:03.372Z,0.00
2023-04-11T00:31:03.208Z,0.00
2023-04-11T00:32:03.459Z,0.00
2023-04-11T00:33:03.128Z,0.00
2023-04-11T00:34:03.413Z,0.00
2023-04-11T00:35:03.263Z,0.00
2023-04-11T00:36:03.127Z,0.00
2023-04-11T00:37:03.312Z,0.00
2023-04-11T00:38:02.901Z,0.00
2023-04-11T00:39:03.222Z,0.00
2023-04-11T00:40:02.822Z,0.00
2023-04-11T00:41:03.044Z,0.00
2023-04-11T00:42:02.719Z,0.00
2023-04-11T00:43:02.848Z,0.00
2023-04-11T00:44:02.710Z,0.00
2023-04-11T00:45:02.866Z,0.00
2023-04-11T00:46:02.585Z,0.00
2023-04-11T00:47:02.503Z,0.00
2023-04-11T00:48:02.692Z,0.00
2023-04-11T00:49:02.408Z,0.00
2023-04-11T00:50:02.486Z,0.00
2023-04-11T00:51:02.544Z,0.00
2023-04-11T00:52:02.312Z,0.00
2023-04-11T00:53:02.564Z,0.00
2023-04-11T00:54:02.314Z,0.00
2023-04-11T00:55:02.185Z,0.00
2023-04-11T00:56:02.322Z,0.00
2023-04-11T00:57:02.106Z,0.00
2023-04-11T00:58:02.348Z,0.00
2023-04-11T00:59:01.979Z,0.00
2023-04-11T01:00:02.149Z,0.00
2023-04-11T01:01:01.904Z,0.00
2023-04-11T01:02:02.155Z,0.00
2023-04-11T01:03:01.945Z,0.00
2023-04-11T01:04:02.337Z,0.00
2023-04-11T01:05:01.730Z,0.00
2023-04-11T01:06:01.856Z,0.00
2023-04-11T01:07:01.625Z,0.00
2023-04-11T01:08:01.582Z,0.00
2023-04-11T01:09:01.872Z,0.00
2023-04-11T01:10:01.630Z,0.00
2023-04-11T01:11:01.450Z,0.00
2023-04-11T01:12:01.671Z,0.00
2023-04-11T01:13:01.371Z,0.00
2023-04-11T01:14:01.339Z,0.00
2023-04-11T01:15:01.447Z,0.00
2023-04-11T01:16:01.503Z,0.00
2023-04-11T01:17:01.559Z,0.00
2023-04-11T01:18:01.220Z,0.00
2023-04-11T01:19:01.101Z,0.00
2023-04-11T01:20:01.058Z,0.00
2023-04-11T01:21:01.294Z,0.00
2023-04-11T01:22:01.354Z,0.00
2023-04-11T01:23:01.094Z,0.00
2023-04-11T01:24:00.876Z,0.00
2023-04-11T01:25:01.111Z,0.00
2023-04-11T01:26:00.788Z,0.00
2023-04-11T01:27:00.920Z,0.00
2023-04-11T01:28:00.896Z,0.00
2023-04-11T01:29:00.934Z,0.00
2023-04-11T01:30:00.614Z,0.00
2023-04-11T01:31:00.780Z,0.00
2023-04-11T01:32:00.539Z,0.00
2023-04-11T01:33:00.813Z,0.00
2023-04-11T01:34:00.522Z,0.00
2023-04-11T01:35:00.423Z,0.00
2023-04-11T01:36:00.364Z,0.00
2023-04-11T01:37:00.501Z,0.00
2023-04-11T01:38:00.264Z,0.00
2023-04-11T01:39:00.393Z,0.00
2023-04-11T01:40:00.463Z,0.00
2023-04-11T01:41:00.416Z,0.00
2023-04-11T01:42:00.100Z,0.00
2023-04-11T01:43:00.222Z,0.00
2023-04-11T01:43:59.997Z,0.00
2023-04-11T01:45:00.228Z,0.00
2023-04-11T01:45:59.906Z,0.00
2023-04-11T01:47:00.050Z,0.00
2023-04-11T01:47:59.991Z,0.00
2023-04-11T01:49:00.292Z,0.00
2023-04-11T01:49:59.729Z,0.00
2023-04-11T01:50:59.859Z,0.00
2023-04-11T01:51:59.638Z,0.00
2023-04-11T01:52:59.881Z,0.00
2023-04-11T01:53:59.561Z,0.00
2023-04-11T01:54:59.690Z,0.00
2023-04-11T01:55:59.464Z,0.00
2023-04-11T01:56:59.706Z,0.00
2023-04-11T01:57:59.372Z,0.00
2023-04-11T01:58:59.557Z,0.00
2023-04-11T01:59:59.284Z,0.00
2023-04-11T02:00:59.542Z,0.00
2023-04-11T02:01:59.438Z,0.00
2023-04-11T02:02:59.295Z,0.00
2023-04-11T02:03:59.456Z,0.00
2023-04-11T02:04:59.067Z,0.00
2023-04-11T02:05:59.377Z,0.00
2023-04-11T02:07:00.187Z,0.00
2023-04-11T02:07:58.933Z,0.00
2023-04-11T02:08:59.190Z,0.00
2023-04-11T02:09:58.851Z,0.00
2023-04-11T02:10:58.988Z,0.00
2023-04-11T02:11:58.805Z,0.00
2023-04-11T02:12:58.722Z,0.00
2023-04-11T02:13:58.804Z,0.00
2023-04-11T02:14:58.623Z,0.00
2023-04-11T02:15:58.908Z,0.00
2023-04-11T02:16:58.538Z,0.00
2023-04-11T02:17:58.717Z,0.00
2023-04-11T02:18:58.558Z,0.00
2023-04-11T02:19:58.640Z,0.00
2023-04-11T02:20:58.376Z,0.00
2023-04-11T02:21:58.459Z,0.00
2023-04-11T02:22:58.270Z,0.00
2023-04-11T02:23:59.716Z,0.00
2023-04-11T02:24:58.188Z,0.00
2023-04-11T02:25:58.284Z,0.00
2023-04-11T02:26:58.094Z,0.00
2023-04-11T02:27:58.294Z,0.00
2023-04-11T02:28:58.149Z,0.00
2023-04-11T02:29:58.317Z,0.00
2023-04-11T02:30:57.949Z,0.00
2023-04-11T02:31:58.254Z,0.00
2023-04-11T02:32:57.853Z,0.00
2023-04-11T02:33:57.844Z,0.00
2023-04-11T02:34:57.791Z,0.00
2023-04-11T02:35:57.984Z,0.00
2023-04-11T02:36:57.657Z,0.00
2023-04-11T02:37:57.814Z,0.00
2023-04-11T02:38:57.651Z,0.00
2023-04-11T02:39:57.802Z,0.00
2023-04-11T02:40:57.480Z,0.00
2023-04-11T02:41:57.807Z,0.00
2023-04-11T02:42:57.388Z,0.00
2023-04-11T02:43:57.594Z,0.00
2023-04-11T02:44:57.605Z,0.00
2023-04-11T02:46:09.460Z,0.00
2023-04-11T02:46:57.229Z,0.00
2023-04-11T02:47:57.672Z,0.00
2023-04-11T02:48:57.265Z,0.00
2023-04-11T02:49:57.191Z,0.00
2023-04-11T02:50:57.030Z,0.00
2023-04-11T02:51:57.145Z,0.00
2023-04-11T02:52:56.952Z,0.00
2023-04-11T02:53:56.953Z,0.00
2023-04-11T02:54:56.865Z,0.00
2023-04-11T02:55:56.971Z,0.00
2023-04-11T02:56:56.779Z,0.00
2023-04-11T02:57:56.780Z,0.00
2023-04-11T02:58:56.832Z,0.00
2023-04-11T02:59:56.789Z,0.00
2023-04-11T03:00:56.584Z,0.00
2023-04-11T03:01:56.999Z,0.00
2023-04-11T03:02:56.753Z,0.00
2023-04-11T03:03:56.722Z,0.00
2023-04-11T03:04:56.409Z,0.00
2023-04-11T03:05:56.369Z,0.00
2023-04-11T03:06:56.338Z,0.00
2023-04-11T03:07:56.441Z,0.00
2023-04-11T03:08:56.709Z,0.00
2023-04-11T03:09:56.253Z,0.00
2023-04-11T03:10:56.137Z,0.00
2023-04-11T03:11:56.120Z,0.00
2023-04-11T03:12:56.269Z,0.00
2023-04-11T03:13:56.120Z,0.00
2023-04-11T03:14:56.079Z,0.00
2023-04-11T03:15:55.976Z,0.00
2023-04-11T03:16:55.871Z,0.00
2023-04-11T03:17:55.887Z,0.00
2023-04-11T03:18:56.086Z,0.00
2023-04-11T03:19:55.778Z,0.00
2023-04-11T03:20:55.922Z,0.00
2023-04-11T03:21:55.648Z,0.00
2023-04-11T03:22:55.851Z,0.00
2023-04-11T03:23:55.574Z,0.00
2023-04-11T03:24:55.556Z,0.00
2023-04-11T03:25:55.614Z,0.00
2023-04-11T03:26:55.591Z,0.00
2023-04-11T03:27:55.376Z,0.00
2023-04-11T03:28:55.489Z,0.00
2023-04-11T03:29:55.287Z,0.00
2023-04-11T03:30:55.414Z,0.00
2023-04-11T03:31:55.226Z,0.00
2023-04-11T03:32:55.190Z,0.00
2023-04-11T03:33:55.201Z,0.00
2023-04-11T03:34:55.068Z,0.00
2023-04-11T03:35:55.230Z,0.00
2023-04-11T03:36:55.062Z,0.00
2023-04-11T03:37:54.922Z,0.00
2023-04-11T03:38:55.198Z,0.00
2023-04-11T03:39:55.054Z,0.00
2023-04-11T03:40:54.793Z,0.00
2023-04-11T03:41:54.857Z,0.00
2023-04-11T03:42:54.720Z,0.00
2023-04-11T03:43:54.651Z,0.00
2023-04-11T03:44:54.664Z,0.00
2023-04-11T03:45:54.555Z,0.00
2023-04-11T03:46:54.705Z,0.00
2023-04-11T03:47:54.491Z,0.00
2023-04-11T03:48:54.775Z,0.00
2023-04-11T03:49:54.374Z,0.00
2023-04-11T03:50:54.510Z,0.00
2023-04-11T03:51:54.287Z,0.00
2023-04-11T03:52:54.317Z,0.00
2023-04-11T03:53:54.211Z,0.00
2023-04-11T03:54:54.346Z,0.00
2023-04-11T03:55:54.103Z,0.00
2023-04-11T03:56:54.147Z,0.00
2023-04-11T03:57:54.005Z,0.00
2023-04-11T03:58:54.280Z,0.00
2023-04-11T03:59:53.953Z,0.00
2023-04-11T04:00:54.014Z,0.00
2023-04-11T04:01:54.017Z,0.00
2023-04-11T04:02:53.934Z,0.00
2023-04-11T04:03:54.100Z,0.00
2023-04-11T04:04:53.871Z,0.00
2023-04-11T04:05:53.644Z,0.00
2023-04-11T04:06:53.796Z,0.00
2023-04-11T04:07:55.636Z,0.00
2023-04-11T04:08:53.610Z,0.00
2023-04-11T04:09:53.456Z,0.00
2023-04-11T04:10:53.408Z,0.00
2023-04-11T04:11:53.428Z,0.00
2023-04-11T04:12:53.488Z,0.00
2023-04-11T04:13:53.758Z,0.00
2023-04-11T04:14:53.232Z,0.00
2023-04-11T04:15:53.189Z,0.00
2023-04-11T04:16:53.219Z,0.00
2023-04-11T04:17:53.368Z,0.00
2023-04-11T04:18:53.053Z,0.00
2023-04-11T04:19:53.079Z,0.00
2023-04-11T04:20:52.955Z,0.00
2023-04-11T04:21:53.094Z,0.00
2023-04-11T04:22:52.859Z,0.00
2023-04-11T04:23:52.915Z,0.00
2023-04-11T04:24:52.961Z,0.00
2023-04-11T04:25:52.935Z,0.00
2023-04-11T04:26:52.681Z,0.00
2023-04-11T04:27:52.728Z,4.00
2023-04-11T04:28:52.589Z,4.00
2023-04-11T04:29:55.964Z,4.00
2023-04-11T04:30:52.513Z,4.00
2023-04-11T04:31:52.514Z,4.00
2023-04-11T04:32:52.439Z,4.00
2023-04-11T04:33:52.570Z,4.00
2023-04-11T04:34:52.313Z,8.00
2023-04-11T04:35:52.491Z,4.00
2023-04-11T04:36:52.440Z,8.00
2023-04-11T04:37:52.390Z,8.00
2023-04-11T04:38:52.139Z,8.00
2023-04-11T04:39:52.200Z,12.00
2023-04-11T04:40:52.046Z,16.00
2023-04-11T04:41:52.217Z,20.00
2023-04-11T04:42:51.965Z,24.00
2023-04-11T04:43:52.026Z,28.00
2023-04-11T04:44:51.871Z,28.00
2023-04-11T04:45:52.054Z,40.00
2023-04-11T04:46:51.774Z,52.00
2023-04-11T04:47:51.778Z,68.00
2023-04-11T04:48:51.919Z,76.00
2023-04-11T04:49:51.868Z,80.00
2023-04-11T04:50:51.589Z,68.00
2023-04-11T04:51:51.675Z,64.00
2023-04-11T04:52:51.507Z,56.00
2023-04-11T04:53:51.689Z,64.00
2023-04-11T04:54:51.397Z,80.00
2023-04-11T04:55:51.512Z,100.00
2023-04-11T04:56:51.309Z,116.00
2023-04-11T04:57:51.521Z,152.00
2023-04-11T04:58:51.222Z,200.00
2023-04-11T04:59:51.532Z,256.00
2023-04-11T05:00:51.160Z,260.00
2023-04-11T05:01:51.221Z,244.00
2023-04-11T05:02:51.138Z,228.00
2023-04-11T05:03:51.117Z,208.00
2023-04-11T05:04:50.943Z,196.00
2023-04-11T05:05:51.165Z,192.00
2023-04-11T05:06:51.020Z,196.00
2023-04-11T05:07:50.980Z,204.00
2023-04-11T05:08:50.761Z,228.00
2023-04-11T05:09:50.732Z,252.00
2023-04-11T05:10:50.791Z,272.00
2023-04-11T05:11:50.658Z,276.00
2023-04-11T05:12:50.806Z,280.00
2023-04-11T05:13:50.537Z,312.00
2023-04-11T05:14:50.486Z,364.00
2023-04-11T05:15:50.447Z,440.00
2023-04-11T05:16:50.858Z,528.00
2023-04-11T05:17:50.371Z,600.00
2023-04-11T05:18:50.441Z,628.00
2023-04-11T05:19:50.445Z,636.00
2023-04-11T05:20:50.259Z,668.00
2023-04-11T05:21:50.259Z,720.00
2023-04-11T05:22:50.224Z,772.00
2023-04-11T05:23:50.273Z,788.00
2023-04-11T05:24:50.036Z,744.00
2023-04-11T05:25:49.989Z,676.00
2023-04-11T05:26:50.088Z,596.00
2023-04-11T05:27:49.895Z,532.00
2023-04-11T05:28:51.128Z,512.00
2023-04-11T05:29:49.829Z,556.00
2023-04-11T05:30:49.802Z,628.00
2023-04-11T05:31:49.947Z,672.00
2023-04-11T05:32:49.694Z,660.00
2023-04-11T05:33:50.762Z,628.00
2023-04-11T05:34:49.579Z,652.00
2023-04-11T05:35:49.830Z,808.00
2023-04-11T05:36:49.486Z,1076.00
2023-04-11T05:37:49.761Z,1468.00
2023-04-11T05:38:49.395Z,1944.00
2023-04-11T05:39:49.575Z,2264.00
2023-04-11T05:40:49.302Z,2484.00
2023-04-11T05:41:49.263Z,2680.00
2023-04-11T05:42:49.217Z,2740.00
2023-04-11T05:43:50.621Z,2544.00
2023-04-11T05:44:49.124Z,2368.00
2023-04-11T05:45:49.239Z,2368.00
2023-04-11T05:46:49.213Z,2332.00
2023-04-11T05:47:49.047Z,2232.00
2023-04-11T05:48:49.032Z,2084.00
2023-04-11T05:49:48.914Z,1888.00
2023-04-11T05:50:49.050Z,1732.00
2023-04-11T05:51:48.805Z,1624.00
2023-04-11T05:52:48.853Z,1476.00
2023-04-11T05:53:48.715Z,1308.00
2023-04-11T05:54:48.867Z,1180.00
2023-04-11T05:55:48.718Z,1176.00
2023-04-11T05:56:48.674Z,1184.00
2023-04-11T05:57:48.541Z,1196.00
2023-04-11T05:58:48.691Z,1224.00
2023-04-11T05:59:48.441Z,1364.00
2023-04-11T06:03:47.419Z,2588.00
2023-04-11T06:04:46.974Z,2668.00
2023-04-11T06:05:46.894Z,2680.00
2023-04-11T06:06:46.786Z,2556.00
2023-04-11T06:07:47.120Z,2500.00
2023-04-11T06:08:46.673Z,2476.00
2023-04-11T06:09:46.723Z,2356.00
2023-04-11T06:10:46.579Z,2284.00
2023-04-11T06:11:46.748Z,2148.00
2023-04-11T06:12:46.512Z,2236.00
2023-04-11T06:13:46.599Z,3060.00
2023-04-11T06:14:46.399Z,4356.00
2023-04-11T06:15:46.603Z,5252.00
2023-04-11T06:16:46.307Z,5568.00
2023-04-11T06:17:46.395Z,5604.00
2023-04-11T06:18:46.209Z,5492.00
2023-04-11T06:19:46.382Z,5384.00
2023-04-11T06:20:46.121Z,5292.00
2023-04-11T06:21:46.193Z,4904.00
2023-04-11T06:22:46.027Z,4180.00
2023-04-11T06:23:46.206Z,3552.00
2023-04-11T06:24:46.017Z,3276.00
2023-04-11T06:25:46.088Z,3600.00
2023-04-11T06:26:46.034Z,4620.00
2023-04-11T06:27:45.850Z,5008.00
2023-04-11T06:28:45.833Z,4988.00
2023-04-11T06:29:45.848Z,4680.00
2023-04-11T06:30:45.671Z,4324.00
2023-04-11T06:31:46.099Z,4072.00
2023-04-11T06:32:45.688Z,3892.00
2023-04-11T06:33:45.666Z,3900.00
2023-04-11T06:34:45.496Z,3752.00
2023-04-11T06:35:45.741Z,3356.00
2023-04-11T06:36:45.390Z,3336.00
2023-04-11T06:37:45.702Z,3508.00
2023-04-11T06:38:45.305Z,3372.00
2023-04-11T06:39:45.519Z,3264.00
2023-04-11T06:40:45.314Z,3076.00
2023-04-11T06:41:45.170Z,3240.00
2023-04-11T06:42:45.324Z,3336.00
2023-04-11T06:43:45.073Z,3040.00
2023-04-11T06:44:45.183Z,2940.00
2023-04-11T06:45:45.192Z,3408.00
2023-04-11T06:46:45.201Z,4372.00
2023-04-11T06:47:44.922Z,4840.00
2023-04-11T06:48:44.964Z,4732.00
2023-04-11T06:49:44.807Z,4388.00
2023-04-11T06:50:44.977Z,3956.00
2023-04-11T06:51:44.711Z,3572.00
2023-04-11T06:52:45.401Z,3572.00
2023-04-11T06:53:44.626Z,3500.00
2023-04-11T06:54:44.803Z,3580.00
2023-04-11T06:55:44.566Z,3980.00
2023-04-11T06:56:44.511Z,4116.00
2023-04-11T06:57:44.452Z,3628.00
2023-04-11T06:58:44.626Z,3492.00
2023-04-11T06:59:44.478Z,3576.00
2023-04-11T07:00:44.436Z,3632.00
2023-04-11T07:01:44.416Z,3616.00
2023-04-11T07:02:44.711Z,3748.00
2023-04-11T07:03:44.314Z,4036.00
2023-04-11T07:04:44.380Z,4156.00
2023-04-11T07:05:44.078Z,3572.00
2023-04-11T07:06:44.289Z,2624.00
2023-04-11T07:07:44.292Z,2532.00
2023-04-11T07:08:43.939Z,2984.00
2023-04-11T07:09:44.105Z,3360.00
2023-04-11T07:10:43.853Z,2904.00
2023-04-11T07:11:43.905Z,2504.00
2023-04-11T07:12:43.779Z,3068.00
2023-04-11T07:13:43.905Z,3208.00
2023-04-11T07:14:43.929Z,3124.00
2023-04-11T07:15:43.629Z,3284.00
2023-04-11T07:16:43.834Z,3932.00
2023-04-11T07:17:43.584Z,4820.00
2023-04-11T07:18:43.486Z,5700.00
2023-04-11T07:19:43.608Z,5880.00
2023-04-11T07:20:43.578Z,6056.00
2023-04-11T07:21:43.353Z,6812.00
2023-04-11T07:22:43.600Z,6636.00
2023-04-11T07:23:43.300Z,6040.00
2023-04-11T07:24:43.214Z,5804.00
2023-04-11T07:25:43.399Z,5744.00
2023-04-11T07:26:43.131Z,5400.00
2023-04-11T07:27:43.203Z,5592.00
2023-04-11T07:28:43.259Z,6140.00
2023-04-11T07:29:42.996Z,6180.00
2023-04-11T07:30:42.960Z,5696.00
2023-04-11T07:31:43.033Z,5888.00
2023-04-11T07:32:42.890Z,6428.00
2023-04-11T07:33:43.042Z,6108.00
2023-04-11T07:34:42.798Z,6576.00
2023-04-11T07:35:42.862Z,7012.00
2023-04-11T07:36:42.683Z,7064.00
2023-04-11T07:37:42.866Z,8360.00
2023-04-11T07:38:42.919Z,9812.00
2023-04-11T07:39:42.675Z,10352.00
2023-04-11T07:40:42.492Z,10404.00
2023-04-11T07:41:42.691Z,10888.00
2023-04-11T07:42:42.394Z,12040.00
2023-04-11T07:43:42.496Z,13016.00
2023-04-11T07:44:42.332Z,13152.00
2023-04-11T07:45:42.562Z,13176.00
2023-04-11T07:46:42.229Z,13716.00
2023-04-11T07:47:42.346Z,13880.00
2023-04-11T07:48:42.131Z,12892.00
2023-04-11T07:49:42.336Z,11348.00
2023-04-11T07:50:42.198Z,11072.00
2023-04-11T07:51:41.995Z,11932.00
2023-04-11T07:52:42.166Z,12336.00
2023-04-11T07:53:41.897Z,11628.00
2023-04-11T07:54:41.876Z,11512.00
2023-04-11T07:55:41.980Z,11644.00
2023-04-11T07:56:41.977Z,11924.00
2023-04-11T07:57:41.720Z,12172.00
2023-04-11T07:58:41.787Z,11804.00
2023-04-11T07:59:41.631Z,10920.00
2023-04-11T08:00:42.046Z,10012.00
2023-04-11T08:01:41.594Z,9728.00
2023-04-11T08:02:41.590Z,9468.00
2023-04-11T08:03:41.767Z,9988.00
2023-04-11T08:04:41.446Z,9624.00
2023-04-11T08:05:41.635Z,8572.00
2023-04-11T08:06:41.388Z,8240.00
2023-04-11T08:07:41.271Z,8332.00
2023-04-11T08:08:41.460Z,7968.00
2023-04-11T08:09:41.186Z,8040.00
2023-04-11T08:10:41.283Z,8552.00
2023-04-11T08:11:41.091Z,8904.00
2023-04-11T08:12:41.487Z,9364.00
2023-04-11T08:13:41.005Z,10124.00
2023-04-11T08:14:41.100Z,11360.00
2023-04-11T08:15:40.914Z,12304.00
2023-04-11T08:16:41.138Z,12700.00
2023-04-11T08:17:40.963Z,12984.00
2023-04-11T08:18:40.803Z,13728.00
2023-04-11T08:19:40.737Z,14440.00
2023-04-11T08:20:41.012Z,15244.00
2023-04-11T08:21:40.646Z,15724.00
2023-04-11T08:22:40.738Z,16044.00
2023-04-11T08:23:40.810Z,16972.00
2023-04-11T08:24:40.516Z,18176.00
2023-04-11T08:25:40.763Z,16968.00
2023-04-11T08:26:40.434Z,15500.00
2023-04-11T08:27:40.572Z,14724.00
2023-04-11T08:28:42.687Z,14984.00
2023-04-11T08:29:40.305Z,15652.00
2023-04-11T08:30:40.283Z,15976.00
2023-04-11T08:31:40.823Z,15048.00
2023-04-11T08:32:40.166Z,14144.00
2023-04-11T08:33:40.238Z,14996.00
2023-04-11T08:34:40.068Z,15040.00
2023-04-11T08:35:40.058Z,14408.00
2023-04-11T08:36:40.229Z,14176.00
2023-04-11T08:37:40.028Z,14188.00
2023-04-11T08:38:40.052Z,14208.00
2023-04-11T08:39:39.842Z,14432.00
2023-04-11T08:40:39.902Z,14548.00
2023-04-11T08:41:39.751Z,14572.00
2023-04-11T08:42:39.860Z,14268.00
2023-04-11T08:43:39.956Z,13036.00
2023-04-11T08:44:39.875Z,11780.00
2023-04-11T08:45:39.600Z,11732.00
2023-04-11T08:46:39.552Z,12012.00
2023-04-11T08:47:39.748Z,12028.00
2023-04-11T08:48:39.450Z,12436.00
2023-04-11T08:49:39.511Z,13144.00
2023-04-11T08:50:39.352Z,13528.00
2023-04-11T08:51:39.517Z,13508.00
2023-04-11T08:52:39.263Z,14132.00
2023-04-11T08:53:39.324Z,14652.00
2023-04-11T08:54:39.167Z,15548.00
2023-04-11T08:55:39.553Z,14424.00
2023-04-11T08:56:39.078Z,13416.00
2023-04-11T08:57:39.027Z,13968.00
2023-04-11T08:58:38.995Z,14464.00
2023-04-11T08:59:39.178Z,15252.00
2023-04-11T09:00:38.900Z,15740.00
2023-04-11T09:01:39.104Z,14952.00
2023-04-11T09:02:38.880Z,14288.00
2023-04-11T09:03:38.824Z,13828.00
2023-04-11T09:04:39.045Z,13896.00
2023-04-11T09:05:38.854Z,14924.00
2023-04-11T09:06:38.896Z,16540.00
2023-04-11T09:07:38.593Z,19168.00
2023-04-11T09:08:38.543Z,22528.00
2023-04-11T09:09:38.623Z,25184.00
2023-04-11T09:10:38.470Z,25632.00
2023-04-11T09:11:38.637Z,23712.00
2023-04-11T09:12:38.365Z,23456.00
2023-04-11T09:13:38.460Z,22240.00
2023-04-11T09:14:38.298Z,19968.00
2023-04-11T09:15:38.483Z,18304.00
2023-04-11T09:16:38.318Z,17920.00
2023-04-11T09:17:38.361Z,19424.00
2023-04-11T09:18:38.109Z,20832.00
2023-04-11T09:19:38.288Z,21792.00
2023-04-11T09:20:38.077Z,25376.00
2023-04-11T09:21:38.097Z,27488.00
2023-04-11T09:22:37.923Z,30016.00
2023-04-11T09:23:38.137Z,32832.00
2023-04-11T09:24:37.865Z,33472.00
2023-04-11T09:25:37.808Z,30368.00
2023-04-11T09:26:38.144Z,31616.00
2023-04-11T09:27:37.710Z,32928.00
2023-04-11T09:28:37.955Z,33952.00
2023-04-11T09:29:37.807Z,33440.00
2023-04-11T09:30:37.776Z,30688.00
2023-04-11T09:31:37.549Z,30560.00
2023-04-11T09:32:37.813Z,30336.00
2023-04-11T09:33:37.429Z,30176.00
2023-04-11T09:34:37.642Z,28064.00
2023-04-11T09:35:37.390Z,29440.00
2023-04-11T09:36:37.310Z,33888.00
2023-04-11T09:37:37.262Z,34560.00
2023-04-11T09:38:37.625Z,36512.00
2023-04-11T09:39:37.172Z,38368.00
2023-04-11T09:40:37.425Z,44768.00
2023-04-11T09:41:37.084Z,47552.00
2023-04-11T09:42:37.043Z,42112.00
2023-04-11T09:43:37.277Z,44000.00
2023-04-11T09:44:37.120Z,51936.00
2023-04-11T09:45:47.797Z,59968.00
2023-04-11T09:46:36.880Z,50400.00
2023-04-11T09:47:37.100Z,59808.00
2023-04-11T09:48:46.443Z,61952.00
2023-04-11T09:49:36.736Z,59520.00
2023-04-11T09:50:38.120Z,62656.00
2023-04-11T09:51:37.313Z,48800.00
2023-04-11T09:52:36.898Z,50080.00
2023-04-11T09:53:37.724Z,52512.00
2023-04-11T09:54:36.532Z,51296.00
2023-04-11T09:55:36.713Z,45600.00
2023-04-11T09:56:36.559Z,57728.00
2023-04-11T09:57:36.529Z,61440.00
2023-04-11T09:58:36.365Z,48256.00
2023-04-11T09:59:36.590Z,51104.00
2023-04-11T10:00:36.286Z,55520.00
2023-04-11T10:01:36.583Z,46368.00
2023-04-11T10:02:36.328Z,36736.00
2023-04-11T10:03:36.368Z,41600.00
2023-04-11T10:04:36.219Z,47392.00
2023-04-11T10:05:36.079Z,45760.00
2023-04-11T10:06:36.190Z,51072.00
2023-04-11T10:07:35.999Z,63008.00
2023-04-11T10:08:36.208Z,61312.00
2023-04-11T10:09:35.919Z,61536.00
2023-04-11T10:10:36.252Z,60064.00
2023-04-11T10:11:35.843Z,58176.00
2023-04-11T10:12:36.030Z,55904.00
2023-04-11T10:13:35.754Z,56736.00
2023-04-11T10:14:36.040Z,70112.00
2023-04-11T10:15:35.674Z,65216.00
2023-04-11T10:16:35.713Z,70624.00
2023-04-11T10:17:35.639Z,59808.00
2023-04-11T10:18:35.864Z,53632.00
2023-04-11T10:19:36.738Z,57408.00
2023-04-11T10:20:35.670Z,45760.00
2023-04-11T10:21:35.430Z,41024.00
2023-04-11T10:22:35.392Z,33408.00
2023-04-11T10:23:36.712Z,27904.00
2023-04-11T10:24:35.324Z,25952.00
2023-04-11T10:25:35.910Z,24192.00
2023-04-11T10:26:35.249Z,21760.00
2023-04-11T10:27:35.416Z,20576.00
2023-04-11T10:28:35.162Z,19296.00
2023-04-11T10:29:35.322Z,18784.00
2023-04-11T10:30:35.074Z,18208.00
2023-04-11T10:31:36.302Z,17632.00
2023-04-11T10:32:35.012Z,18176.00
2023-04-11T10:33:34.969Z,19008.00
2023-04-11T10:34:34.910Z,19680.00
2023-04-11T10:35:35.089Z,19264.00
2023-04-11T10:36:34.827Z,18208.00
2023-04-11T10:37:34.871Z,17440.00
2023-04-11T10:38:34.746Z,16168.00
2023-04-11T10:39:34.717Z,16176.00
2023-04-11T10:40:34.663Z,16280.00
2023-04-11T10:41:34.907Z,15600.00
2023-04-11T10:42:34.574Z,14976.00
2023-04-11T10:43:35.409Z,15164.00
2023-04-11T10:44:34.494Z,15476.00
2023-04-11T10:45:34.460Z,15908.00
2023-04-11T10:46:34.561Z,16892.00
2023-04-11T10:47:34.440Z,18240.00
2023-04-11T10:48:34.559Z,19648.00
2023-04-11T10:49:34.291Z,21216.00
2023-04-11T10:50:34.255Z,23264.00
2023-04-11T10:51:34.203Z,27328.00
2023-04-11T10:52:34.365Z,29888.00
2023-04-11T10:53:34.220Z,25504.00
2023-04-11T10:54:35.200Z,20864.00
2023-04-11T10:55:34.033Z,20544.00
2023-04-11T10:56:33.986Z,21536.00
2023-04-11T10:57:33.945Z,22208.00
2023-04-11T10:58:34.004Z,21984.00
2023-04-11T10:59:33.925Z,22496.00
2023-04-11T11:00:35.124Z,23520.00
2023-04-11T11:01:42.742Z,24160.00
2023-04-11T11:02:34.015Z,24864.00
2023-04-11T11:03:34.020Z,26560.00
2023-04-11T11:04:33.791Z,26272.00
2023-04-11T11:05:33.638Z,25056.00
2023-04-11T11:06:34.799Z,26464.00
2023-04-11T11:07:33.522Z,30240.00
2023-04-11T11:08:33.706Z,34720.00
2023-04-11T11:09:33.431Z,37856.00
2023-04-11T11:10:33.472Z,38016.00
2023-04-11T11:11:33.536Z,36448.00
2023-04-11T11:12:33.493Z,35296.00
2023-04-11T11:13:33.262Z,34368.00
2023-04-11T11:14:33.307Z,33280.00
2023-04-11T11:15:33.173Z,31968.00
2023-04-11T11:16:33.518Z,29408.00
2023-04-11T11:17:33.108Z,27328.00
2023-04-11T11:18:33.045Z,25600.00
2023-04-11T11:19:33.144Z,25248.00
2023-04-11T11:20:32.961Z,25696.00
2023-04-11T11:21:33.144Z,26016.00
2023-04-11T11:22:33.059Z,25344.00
2023-04-11T11:23:33.537Z,23872.00
2023-04-11T11:24:32.788Z,23072.00
2023-04-11T11:25:32.989Z,23648.00
2023-04-11T11:26:32.699Z,24608.00
2023-04-11T11:27:32.777Z,24448.00
2023-04-11T11:28:32.857Z,23840.00
2023-04-11T11:29:32.587Z,22720.00
2023-04-11T11:30:32.527Z,21952.00
2023-04-11T11:31:32.609Z,22048.00
2023-04-11T11:32:32.523Z,21824.00
2023-04-11T11:33:32.627Z,21472.00
2023-04-11T11:34:32.360Z,21376.00
2023-04-11T11:35:32.374Z,20864.00
2023-04-11T11:36:32.674Z,20800.00
2023-04-11T11:37:32.226Z,22336.00
2023-04-11T11:38:32.242Z,24032.00
2023-04-11T11:39:32.143Z,24576.00
2023-04-11T11:40:32.104Z,21792.00
2023-04-11T11:41:32.273Z,17952.00
2023-04-11T11:42:32.045Z,18048.00
2023-04-11T11:43:32.083Z,20288.00
2023-04-11T11:44:31.938Z,22080.00
2023-04-11T11:45:32.302Z,23616.00
2023-04-11T11:46:31.927Z,24192.00
2023-04-11T11:47:31.857Z,22720.00
2023-04-11T11:48:31.913Z,20672.00
2023-04-11T11:49:31.720Z,20064.00
2023-04-11T11:50:31.719Z,22176.00
2023-04-11T11:51:31.627Z,25120.00
2023-04-11T11:52:32.784Z,28672.00
2023-04-11T11:53:31.790Z,30848.00
2023-04-11T11:54:31.545Z,34336.00
2023-04-11T11:55:31.459Z,38976.00
2023-04-11T11:56:31.563Z,42240.00
2023-04-11T11:57:31.414Z,41952.00
2023-04-11T11:58:31.372Z,41056.00
2023-04-11T11:59:31.431Z,40544.00
2023-04-11T12:00:31.388Z,40896.00
2023-04-11T12:01:31.207Z,41824.00
2023-04-11T12:02:31.346Z,40992.00
2023-04-11T12:03:31.247Z,45408.00
2023-04-11T12:04:31.321Z,48544.00
2023-04-11T12:05:31.112Z,49568.00
2023-04-11T12:06:31.010Z,49216.00
2023-04-11T12:07:31.024Z,52672.00
2023-04-11T12:08:33.082Z,54208.00
2023-04-11T12:09:31.098Z,52736.00
2023-04-11T12:10:31.049Z,53152.00
2023-04-11T12:11:30.778Z,48960.00
2023-04-11T12:12:30.857Z,46912.00
2023-04-11T12:13:30.693Z,44768.00
2023-04-11T12:14:30.653Z,43648.00
2023-04-11T12:15:30.946Z,45216.00
2023-04-11T12:16:30.686Z,44224.00
2023-04-11T12:17:30.741Z,47392.00
2023-04-11T12:18:30.488Z,49312.00
2023-04-11T12:19:30.472Z,47520.00
2023-04-11T12:20:30.555Z,48736.00
2023-04-11T12:21:30.513Z,50144.00
2023-04-11T12:22:30.319Z,47936.00
2023-04-11T12:23:31.369Z,46176.00
2023-04-11T12:24:30.242Z,42336.00
2023-04-11T12:25:30.200Z,41440.00
2023-04-11T12:26:30.348Z,37280.00
2023-04-11T12:27:30.307Z,36192.00